Time,TemperatureF,DewpointF,PressureIn,WindDirection,WindDirectionDegrees,WindSpeedMPH,WindSpeedGustMPH,Humidity,HourlyPrecipIn,Conditions,Clouds,dailyrainin,SoftwareType,DateUTC
2013-06-26 00:00:00,69.0,-99.9,-100.00,West,275,9.0,11.0,-999,-99.99,,,-99.99,,2013-06-26 06:00:00,
2013-06-26 00:22:00,69.0,-99.9,-100.00,West,275,9.0,11.0,-999,-99.99,,,-99.99,,2013-06-26 06:22:00,
2013-06-26 00:34:00,69.0,-99.9,-100.00,West,275,9.0,11.0,-999,-99.99,,,-99.99,,2013-06-26 06:34:00,
2013-06-26 00:44:00,69.0,-99.9,-100.00,West,275,9.0,11.0,-999,-99.99,,,-99.99,,2013-06-26 06:44:00,
2013-06-26 00:53:00,69.0,-99.9,-100.00,West,275,9.0,11.0,-999,-99.99,,,-99.99,,2013-06-26 06:53:00,
2013-06-26 01:00:00,65.0,-99.9,-100.00,SSE,167,6.0,8.0,-999,-99.99,,,-99.99,,2013-06-26 07:00:00,
2013-06-26 01:22:00,65.0,-99.9,-100.00,SSE,167,6.0,8.0,-999,-99.99,,,-99.99,,2013-06-26 07:22:00,
2013-06-26 01:33:00,65.0,-99.9,-100.00,SSE,167,6.0,8.0,-999,-99.99,,,-99.99,,2013-06-26 07:33:00,
2013-06-26 01:43:00,65.0,-99.9,-100.00,SSE,167,6.0,8.0,-999,-99.99,,,-99.99,,2013-06-26 07:43:00,
2013-06-26 01:53:00,65.0,-99.9,-100.00,SSE,167,6.0,8.0,-999,-99.99,,,-99.99,,2013-06-26 07:53:00,
2013-06-26 02:00:00,65.0,-99.9,-100.00,SW,216,6.0,7.0,-999,-99.99,,,-99.99,,2013-06-26 08:00:00,
2013-06-26 02:34:00,65.0,-99.9,-100.00,SW,216,6.0,7.0,-999,-99.99,,,-99.99,,2013-06-26 08:34:00,
2013-06-26 02:43:00,65.0,-99.9,-100.00,SW,216,6.0,7.0,-999,-99.99,,,-99.99,,2013-06-26 08:43:00,
2013-06-26 02:53:00,65.0,-99.9,-100.00,SW,216,6.0,7.0,-999,-99.99,,,-99.99,,2013-06-26 08:53:00,
2013-06-26 04:00:00,67.0,-99.9,-100.00,WSW,248,10.0,13.0,-999,-99.99,,,-99.99,,2013-06-26 10:00:00,
2013-06-26 04:34:00,67.0,-99.9,-100.00,WSW,248,10.0,13.0,-999,-99.99,,,-99.99,,2013-06-26 10:34:00,
2013-06-26 04:43:00,67.0,-99.9,-100.00,WSW,248,10.0,13.0,-999,-99.99,,,-99.99,,2013-06-26 10:43:00,
2013-06-26 04:53:00,67.0,-99.9,-100.00,WSW,248,10.0,13.0,-999,-99.99,,,-99.99,,2013-06-26 10:53:00,
2013-06-26 05:00:00,66.0,-99.9,-100.00,WSW,250,8.0,11.0,-999,-99.99,,,-99.99,,2013-06-26 11:00:00,
2013-06-26 05:23:00,66.0,-99.9,-100.00,WSW,250,8.0,11.0,-999,-99.99,,,-99.99,,2013-06-26 11:23:00,
2013-06-26 05:33:00,66.0,-99.9,-100.00,WSW,250,8.0,11.0,-999,-99.99,,,-99.99,,2013-06-26 11:33:00,
2013-06-26 05:44:00,66.0,-99.9,-100.00,WSW,250,8.0,11.0,-999,-99.99,,,-99.99,,2013-06-26 11:44:00,
2013-06-26 05:52:00,66.0,-99.9,-100.00,WSW,250,8.0,11.0,-999,-99.99,,,-99.99,,2013-06-26 11:52:00,
2013-06-26 06:00:00,66.0,-99.9,-100.00,WSW,238,12.0,15.0,-999,-99.99,,,-99.99,,2013-06-26 12:00:00,
2013-06-26 06:22:00,66.0,-99.9,-100.00,WSW,238,12.0,15.0,-999,-99.99,,,-99.99,,2013-06-26 12:22:00,
2013-06-26 06:34:00,66.0,-99.9,-100.00,WSW,238,12.0,15.0,-999,-99.99,,,-99.99,,2013-06-26 12:34:00,
2013-06-26 06:43:00,66.0,-99.9,-100.00,WSW,238,12.0,15.0,-999,-99.99,,,-99.99,,2013-06-26 12:43:00,
2013-06-26 06:52:00,66.0,-99.9,-100.00,WSW,238,12.0,15.0,-999,-99.99,,,-99.99,,2013-06-26 12:52:00,
2013-06-26 07:00:00,63.0,-99.9,-100.00,North,5,4.0,5.0,-999,-99.99,,,-99.99,,2013-06-26 13:00:00,
2013-06-26 07:34:00,63.0,-99.9,-100.00,North,5,4.0,5.0,-999,-99.99,,,-99.99,,2013-06-26 13:34:00,
2013-06-26 07:43:00,63.0,-99.9,-100.00,North,5,4.0,5.0,-999,-99.99,,,-99.99,,2013-06-26 13:43:00,
2013-06-26 07:53:00,63.0,-99.9,-100.00,North,5,4.0,5.0,-999,-99.99,,,-99.99,,2013-06-26 13:53:00,
2013-06-26 08:00:00,62.0,-99.9,-100.00,WNW,285,4.0,5.0,-999,-99.99,,,-99.99,,2013-06-26 14:00:00,
2013-06-26 08:34:00,62.0,-99.9,-100.00,WNW,285,4.0,5.0,-999,-99.99,,,-99.99,,2013-06-26 14:34:00,
2013-06-26 08:42:00,62.0,-99.9,-100.00,WNW,285,4.0,5.0,-999,-99.99,,,-99.99,,2013-06-26 14:42:00,
2013-06-26 08:53:00,62.0,-99.9,-100.00,WNW,285,4.0,5.0,-999,-99.99,,,-99.99,,2013-06-26 14:53:00,
2013-06-26 09:00:00,67.0,-99.9,-100.00,WSW,258,6.0,7.0,-999,-99.99,,,-99.99,,2013-06-26 15:00:00,
2013-06-26 09:34:00,67.0,-99.9,-100.00,WSW,258,6.0,7.0,-999,-99.99,,,-99.99,,2013-06-26 15:34:00,
2013-06-26 09:44:00,67.0,-99.9,-100.00,WSW,258,6.0,7.0,-999,-99.99,,,-99.99,,2013-06-26 15:44:00,
2013-06-26 09:53:00,67.0,-99.9,-100.00,WSW,258,6.0,7.0,-999,-99.99,,,-99.99,,2013-06-26 15:53:00,
2013-06-26 10:00:00,73.0,-99.9,-100.00,ENE,69,1.0,2.0,-999,-99.99,,,-99.99,,2013-06-26 16:00:00,
2013-06-26 10:22:00,73.0,-99.9,-100.00,ENE,69,1.0,2.0,-999,-99.99,,,-99.99,,2013-06-26 16:22:00,
2013-06-26 10:34:00,73.0,-99.9,-100.00,ENE,69,1.0,2.0,-999,-99.99,,,-99.99,,2013-06-26 16:34:00,
2013-06-26 10:43:00,73.0,-99.9,-100.00,ENE,69,1.0,2.0,-999,-99.99,,,-99.99,,2013-06-26 16:43:00,
2013-06-26 10:52:00,73.0,-99.9,-100.00,ENE,69,1.0,2.0,-999,-99.99,,,-99.99,,2013-06-26 16:52:00,
2013-06-26 11:00:00,80.0,-99.9,-100.00,WSW,239,2.0,4.0,-999,-99.99,,,-99.99,,2013-06-26 17:00:00,
2013-06-26 11:33:00,80.0,-99.9,-100.00,WSW,239,2.0,4.0,-999,-99.99,,,-99.99,,2013-06-26 17:33:00,
2013-06-26 11:43:00,80.0,-99.9,-100.00,WSW,239,2.0,4.0,-999,-99.99,,,-99.99,,2013-06-26 17:43:00,
2013-06-26 11:52:00,80.0,-99.9,-100.00,WSW,239,2.0,4.0,-999,-99.99,,,-99.99,,2013-06-26 17:52:00,
2013-06-26 12:00:00,79.0,-99.9,-100.00,West,262,7.0,15.0,-999,-99.99,,,-99.99,,2013-06-26 18:00:00,
2013-06-26 12:22:00,79.0,-99.9,-100.00,West,262,7.0,15.0,-999,-99.99,,,-99.99,,2013-06-26 18:22:00,
2013-06-26 12:34:00,79.0,-99.9,-100.00,West,262,7.0,15.0,-999,-99.99,,,-99.99,,2013-06-26 18:34:00,
2013-06-26 12:43:00,79.0,-99.9,-100.00,West,262,7.0,15.0,-999,-99.99,,,-99.99,,2013-06-26 18:43:00,
2013-06-26 12:52:00,79.0,-99.9,-100.00,West,262,7.0,15.0,-999,-99.99,,,-99.99,,2013-06-26 18:52:00,
2013-06-26 13:00:00,81.0,-99.9,-100.00,WNW,296,9.0,14.0,-999,-99.99,,,-99.99,,2013-06-26 19:00:00,
2013-06-26 13:22:00,81.0,-99.9,-100.00,WNW,296,9.0,14.0,-999,-99.99,,,-99.99,,2013-06-26 19:22:00,
2013-06-26 13:33:00,81.0,-99.9,-100.00,WNW,296,9.0,14.0,-999,-99.99,,,-99.99,,2013-06-26 19:33:00,
2013-06-26 13:43:00,81.0,-99.9,-100.00,WNW,296,9.0,14.0,-999,-99.99,,,-99.99,,2013-06-26 19:43:00,
2013-06-26 13:52:00,81.0,-99.9,-100.00,WNW,296,9.0,14.0,-999,-99.99,,,-99.99,,2013-06-26 19:52:00,
2013-06-26 14:00:00,84.0,-99.9,-100.00,West,268,15.0,19.0,-999,-99.99,,,-99.99,,2013-06-26 20:00:00,
2013-06-26 14:22:00,84.0,-99.9,-100.00,West,268,15.0,19.0,-999,-99.99,,,-99.99,,2013-06-26 20:22:00,
2013-06-26 14:34:00,84.0,-99.9,-100.00,West,268,15.0,19.0,-999,-99.99,,,-99.99,,2013-06-26 20:34:00,
2013-06-26 14:43:00,84.0,-99.9,-100.00,West,268,15.0,19.0,-999,-99.99,,,-99.99,,2013-06-26 20:43:00,
2013-06-26 14:53:00,84.0,-99.9,-100.00,West,268,15.0,19.0,-999,-99.99,,,-99.99,,2013-06-26 20:53:00,
2013-06-26 15:00:00,83.0,-99.9,-100.00,West,262,21.0,27.0,-999,-99.99,,,-99.99,,2013-06-26 21:00:00,
2013-06-26 15:23:00,83.0,-99.9,-100.00,West,262,21.0,27.0,-999,-99.99,,,-99.99,,2013-06-26 21:23:00,
2013-06-26 15:33:00,83.0,-99.9,-100.00,West,262,21.0,27.0,-999,-99.99,,,-99.99,,2013-06-26 21:33:00,
2013-06-26 15:43:00,83.0,-99.9,-100.00,West,262,21.0,27.0,-999,-99.99,,,-99.99,,2013-06-26 21:43:00,
2013-06-26 15:52:00,83.0,-99.9,-100.00,West,262,21.0,27.0,-999,-99.99,,,-99.99,,2013-06-26 21:52:00,
2013-06-26 16:00:00,83.0,-99.9,-100.00,NW,304,10.0,16.0,-999,-99.99,,,-99.99,,2013-06-26 22:00:00,
2013-06-26 16:34:00,83.0,-99.9,-100.00,NW,304,10.0,16.0,-999,-99.99,,,-99.99,,2013-06-26 22:34:00,
2013-06-26 16:43:00,83.0,-99.9,-100.00,NW,304,10.0,16.0,-999,-99.99,,,-99.99,,2013-06-26 22:43:00,
2013-06-26 16:52:00,83.0,-99.9,-100.00,NW,304,10.0,16.0,-999,-99.99,,,-99.99,,2013-06-26 22:52:00,
2013-06-26 17:00:00,85.0,-99.9,-100.00,WNW,285,15.0,22.0,-999,-99.99,,,-99.99,,2013-06-26 23:00:00,
2013-06-26 17:22:00,85.0,-99.9,-100.00,WNW,285,15.0,22.0,-999,-99.99,,,-99.99,,2013-06-26 23:22:00,
2013-06-26 17:34:00,85.0,-99.9,-100.00,WNW,285,15.0,22.0,-999,-99.99,,,-99.99,,2013-06-26 23:34:00,
2013-06-26 17:43:00,85.0,-99.9,-100.00,WNW,285,15.0,22.0,-999,-99.99,,,-99.99,,2013-06-26 23:43:00,
2013-06-26 17:53:00,85.0,-99.9,-100.00,WNW,285,15.0,22.0,-999,-99.99,,,-99.99,,2013-06-26 23:53:00,
2013-06-26 18:00:00,82.0,-99.9,-100.00,WNW,294,7.0,13.0,-999,-99.99,,,-99.99,,2013-06-27 00:00:00,
2013-06-26 18:22:00,82.0,-99.9,-100.00,WNW,294,7.0,13.0,-999,-99.99,,,-99.99,,2013-06-27 00:22:00,
2013-06-26 18:34:00,82.0,-99.9,-100.00,WNW,294,7.0,13.0,-999,-99.99,,,-99.99,,2013-06-27 00:34:00,
2013-06-26 18:43:00,82.0,-99.9,-100.00,WNW,294,7.0,13.0,-999,-99.99,,,-99.99,,2013-06-27 00:43:00,
2013-06-26 18:53:00,82.0,-99.9,-100.00,WNW,294,7.0,13.0,-999,-99.99,,,-99.99,,2013-06-27 00:53:00,
2013-06-26 19:00:00,82.0,-99.9,-100.00,West,263,19.0,23.0,-999,-99.99,,,-99.99,,2013-06-27 01:00:00,
2013-06-26 19:22:00,82.0,-99.9,-100.00,West,263,19.0,23.0,-999,-99.99,,,-99.99,,2013-06-27 01:22:00,
2013-06-26 19:32:00,82.0,-99.9,-100.00,West,263,19.0,23.0,-999,-99.99,,,-99.99,,2013-06-27 01:32:00,
2013-06-26 19:43:00,82.0,-99.9,-100.00,West,263,19.0,23.0,-999,-99.99,,,-99.99,,2013-06-27 01:43:00,
2013-06-26 19:53:00,82.0,-99.9,-100.00,West,263,19.0,23.0,-999,-99.99,,,-99.99,,2013-06-27 01:53:00,
2013-06-26 20:00:00,81.0,-99.9,-100.00,WNW,288,10.0,13.0,-999,-99.99,,,-99.99,,2013-06-27 02:00:00,
2013-06-26 20:32:00,81.0,-99.9,-100.00,WNW,288,10.0,13.0,-999,-99.99,,,-99.99,,2013-06-27 02:32:00,
2013-06-26 20:43:00,81.0,-99.9,-100.00,WNW,288,10.0,13.0,-999,-99.99,,,-99.99,,2013-06-27 02:43:00,
2013-06-26 20:52:00,81.0,-99.9,-100.00,WNW,288,10.0,13.0,-999,-99.99,,,-99.99,,2013-06-27 02:52:00,
2013-06-26 21:00:00,78.0,-99.9,-100.00,West,277,8.0,11.0,-999,-99.99,,,-99.99,,2013-06-27 03:00:00,
2013-06-26 21:22:00,78.0,-99.9,-100.00,West,277,8.0,11.0,-999,-99.99,,,-99.99,,2013-06-27 03:22:00,
2013-06-26 21:33:00,78.0,-99.9,-100.00,West,277,8.0,11.0,-999,-99.99,,,-99.99,,2013-06-27 03:33:00,
2013-06-26 21:42:00,78.0,-99.9,-100.00,West,277,8.0,11.0,-999,-99.99,,,-99.99,,2013-06-27 03:42:00,
2013-06-26 21:52:00,78.0,-99.9,-100.00,West,277,8.0,11.0,-999,-99.99,,,-99.99,,2013-06-27 03:52:00,
2013-06-26 22:00:00,69.0,-99.9,-100.00,ESE,105,6.0,9.0,-999,-99.99,,,-99.99,,2013-06-27 04:00:00,
2013-06-26 22:22:00,69.0,-99.9,-100.00,ESE,105,6.0,9.0,-999,-99.99,,,-99.99,,2013-06-27 04:22:00,
2013-06-26 22:33:00,69.0,-99.9,-100.00,ESE,105,6.0,9.0,-999,-99.99,,,-99.99,,2013-06-27 04:33:00,
2013-06-26 22:42:00,69.0,-99.9,-100.00,ESE,105,6.0,9.0,-999,-99.99,,,-99.99,,2013-06-27 04:42:00,
2013-06-26 22:53:00,69.0,-99.9,-100.00,ESE,105,6.0,9.0,-999,-99.99,,,-99.99,,2013-06-27 04:53:00,
2013-06-26 23:00:00,67.0,-99.9,-100.00,SSE,155,3.0,3.0,-999,-99.99,,,-99.99,,2013-06-27 05:00:00,
2013-06-26 23:22:00,67.0,-99.9,-100.00,SSE,155,3.0,3.0,-999,-99.99,,,-99.99,,2013-06-27 05:22:00,
2013-06-26 23:33:00,67.0,-99.9,-100.00,SSE,155,3.0,3.0,-999,-99.99,,,-99.99,,2013-06-27 05:33:00,
2013-06-26 23:42:00,67.0,-99.9,-100.00,SSE,155,3.0,3.0,-999,-99.99,,,-99.99,,2013-06-27 05:42:00,
2013-06-26 23:53:00,67.0,-99.9,-100.00,SSE,155,3.0,3.0,-999,-99.99,,,-99.99,,2013-06-27 05:53:00,